Time;durP1;ratioP1;P1;durP2;ratioP2;P2;SDS_P1;SDS_P2;PMS_P1;PMS_P2;Temp;Humidity;BMP_temperature;BMP_pressure;BME280_temperature;BME280_humidity;BME280_pressure;Samples;Min_cycle;Max_cycle;Signal;HPM_P1;HPM_P2
2022/10/11 00:00:45;;;;;;;0.00;0.00;;;;;;;16.28;68.05;98365.69;8413758;28;20238;-82
2022/10/11 00:04:49;;;;;;;0.00;0.00;;;;;;;16.32;67.97;98375.88;8413274;28;20223;-83
2022/10/11 00:08:53;;;;;;;0.00;0.00;;;;;;;16.31;68.15;98374.19;8413265;28;20607;-83
2022/10/11 00:12:56;;;;;;;0.00;0.00;;;;;;;16.29;67.99;98375.22;8413083;28;20262;-83
2022/10/11 00:16:58;;;;;;;0.00;0.00;;;;;;;16.32;67.52;98381.09;8413148;28;20514;-83
2022/10/11 00:21:03;;;;;;;0.10;0.10;;;;;;;16.29;67.50;98385.66;8412936;28;20227;-83
2022/10/11 00:25:09;;;;;;;0.00;0.00;;;;;;;16.22;68.66;98382.56;8412810;28;20284;-83
2022/10/11 00:29:12;;;;;;;0.00;0.00;;;;;;;16.26;68.54;98380.63;8412673;28;20272;-83
2022/10/11 00:33:15;;;;;;;0.00;0.00;;;;;;;16.27;68.44;98382.31;8412231;28;20231;-83
2022/10/11 00:37:18;;;;;;;0.00;0.00;;;;;;;16.19;68.38;98382.78;8412508;28;20222;-83
2022/10/11 00:41:22;;;;;;;0.00;0.00;;;;;;;16.12;68.71;98379.69;8412355;28;20275;-83
2022/10/11 00:45:53;;;;;;;0.00;0.00;;;;;;;16.22;67.56;98379.97;8411775;28;20230;-79
2022/10/11 00:49:57;;;;;;;0.00;0.00;;;;;;;15.98;68.68;98366.63;8412673;28;20222;-83
2022/10/11 00:54:02;;;;;;;0.10;0.10;;;;;;;15.99;67.94;98373.50;8412124;28;20526;-83
2022/10/11 00:58:07;;;;;;;0.00;0.00;;;;;;;16.06;67.64;98369.59;8412158;28;20227;-82
2022/10/11 01:02:10;;;;;;;0.00;0.00;;;;;;;15.92;67.72;98378.28;8412064;28;20242;-83
2022/10/11 01:06:13;;;;;;;0.00;0.00;;;;;;;15.99;67.31;98378.75;8411978;28;20234;-82
2022/10/11 01:10:16;;;;;;;0.00;0.00;;;;;;;16.03;67.41;98393.31;8411455;28;20242;-83
2022/10/11 01:14:39;;;;;;;0.00;0.00;;;;;;;16.07;67.17;98392.19;8412121;28;20329;-82
2022/10/11 01:18:48;;;;;;;0.00;0.00;;;;;;;16.04;67.32;98389.75;8411668;28;20526;-83
2022/10/11 01:23:27;;;;;;;0.00;0.00;;;;;;;15.98;66.93;98388.34;8411856;28;20284;-83
2022/10/11 01:27:40;;;;;;;0.00;0.00;;;;;;;16.04;66.50;98402.81;8411316;28;20246;-83
2022/10/11 01:31:49;;;;;;;0.00;0.00;;;;;;;15.95;66.89;98403.38;8411779;28;20296;-83
2022/10/11 01:35:57;;;;;;;0.00;0.00;;;;;;;15.94;66.83;98405.16;8411567;28;20227;-83
2022/10/11 01:40:03;;;;;;;0.00;0.00;;;;;;;15.89;67.29;98407.19;8411578;28;20226;-83
2022/10/11 01:44:07;;;;;;;0.00;0.00;;;;;;;15.91;67.39;98401.88;8414699;28;20545;-82
2022/10/11 01:48:13;;;;;;;0.00;0.00;;;;;;;15.85;67.22;98404.84;8417794;28;20230;-83
2022/10/11 01:52:15;;;;;;;0.00;0.00;;;;;;;15.85;67.49;98416.13;8417270;28;20242;-82
2022/10/11 01:56:27;;;;;;;0.00;0.00;;;;;;;15.86;67.66;98422.19;8417337;28;20230;-83
2022/10/11 02:00:34;;;;;;;0.00;0.00;;;;;;;15.93;67.47;98423.50;8416977;28;20231;-82
2022/10/11 02:04:41;;;;;;;0.00;0.00;;;;;;;15.98;67.77;98424.09;8417503;28;20412;-82
2022/10/11 02:08:51;;;;;;;0.00;0.00;;;;;;;15.94;67.97;98426.03;8417190;28;20235;-83
2022/10/11 02:12:57;;;;;;;0.00;0.00;;;;;;;15.91;68.29;98420.97;8416966;28;20230;-83
2022/10/11 02:17:06;;;;;;;0.00;0.00;;;;;;;15.92;68.01;98429.69;8417085;28;20226;-82
2022/10/11 02:21:13;;;;;;;0.00;0.00;;;;;;;15.98;67.94;98431.94;8416940;28;20227;-83
2022/10/11 02:25:20;;;;;;;0.10;0.10;;;;;;;15.94;68.44;98428.66;8416907;28;20522;-84
2022/10/11 02:29:24;;;;;;;0.00;0.00;;;;;;;15.98;68.35;98430.16;8416706;28;20275;-83
2022/10/11 02:33:31;;;;;;;0.00;0.00;;;;;;;16.00;68.23;98423.06;8415969;28;20242;-83
2022/10/11 02:37:39;;;;;;;0.00;0.00;;;;;;;16.00;68.68;98419.63;8416247;28;20230;-82
2022/10/11 02:41:42;;;;;;;0.00;0.00;;;;;;;16.04;68.51;98418.50;8416369;28;20497;-82
2022/10/11 02:45:51;;;;;;;0.00;0.00;;;;;;;16.04;68.80;98413.28;8415995;28;20242;-83
2022/10/11 02:49:54;;;;;;;0.00;0.00;;;;;;;15.94;69.12;98412.16;8416208;28;20284;-83
2022/10/11 02:53:58;;;;;;;0.00;0.00;;;;;;;15.97;68.49;98418.03;8415922;28;20423;-83
2022/10/11 02:58:01;;;;;;;0.00;0.00;;;;;;;16.00;67.36;98410.00;8416023;28;20246;-82
2022/10/11 03:02:03;;;;;;;0.00;0.00;;;;;;;16.05;67.22;98424.56;8415659;28;20230;-83
2022/10/11 03:06:07;;;;;;;0.00;0.00;;;;;;;15.92;67.99;98440.13;8416155;28;20233;-83
2022/10/11 03:10:12;;;;;;;0.00;0.00;;;;;;;15.92;67.96;98450.56;8415724;28;20595;-83
2022/10/11 03:14:14;;;;;;;0.00;0.00;;;;;;;15.81;68.35;98449.41;8415826;28;20526;-83
2022/10/11 03:18:18;;;;;;;0.00;0.00;;;;;;;15.87;68.59;98463.06;8415448;28;20281;-83
2022/10/11 03:22:21;;;;;;;0.00;0.00;;;;;;;15.99;67.98;98465.81;8415043;28;20238;-82
2022/10/11 03:26:25;;;;;;;0.00;0.00;;;;;;;15.92;68.59;98466.25;8415553;28;20237;-84
2022/10/11 03:30:27;;;;;;;0.00;0.00;;;;;;;15.88;68.79;98465.59;8414918;28;20226;-84
2022/10/11 03:34:30;;;;;;;0.00;0.00;;;;;;;15.90;68.83;98470.72;8415081;28;20243;-83
2022/10/11 03:38:33;;;;;;;0.00;0.00;;;;;;;15.91;68.87;98472.38;8415248;28;20455;-83
2022/10/11 03:42:38;;;;;;;0.00;0.00;;;;;;;15.97;68.42;98477.25;8415029;28;20235;-83
2022/10/11 03:46:40;;;;;;;0.00;0.00;;;;;;;15.93;68.76;98475.75;8414954;28;20291;-83
2022/10/11 03:50:43;;;;;;;0.00;0.00;;;;;;;15.97;68.47;98485.09;8414798;28;20254;-83
2022/10/11 03:54:46;;;;;;;0.00;0.00;;;;;;;15.97;68.77;98482.47;8414670;28;20230;-82
2022/10/11 03:58:50;;;;;;;0.10;0.10;;;;;;;16.07;68.35;98491.47;8414630;28;20226;-83
2022/10/11 04:02:53;;;;;;;0.10;0.10;;;;;;;16.08;68.52;98485.31;8414381;28;20245;-83
2022/10/11 04:06:56;;;;;;;0.00;0.00;;;;;;;15.98;68.58;98486.78;8413913;28;20230;-83
2022/10/11 04:10:59;;;;;;;0.00;0.00;;;;;;;15.98;69.15;98495.44;8414310;28;20243;-83
2022/10/11 04:15:04;;;;;;;0.00;0.00;;;;;;;15.95;68.85;98498.22;8414468;28;20518;-80
2022/10/11 04:19:07;;;;;;;0.00;0.00;;;;;;;15.98;68.85;98505.06;8414662;28;20222;-83
2022/10/11 04:23:09;;;;;;;0.00;0.00;;;;;;;16.00;69.26;98503.19;8415737;28;20237;-83
2022/10/11 04:27:12;;;;;;;0.00;0.00;;;;;;;16.02;69.34;98504.78;8414877;28;20230;-82
2022/10/11 04:31:16;;;;;;;0.00;0.00;;;;;;;16.03;69.24;98501.25;8414183;28;20276;-82
2022/10/11 04:35:19;;;;;;;0.00;0.00;;;;;;;16.03;68.77;98500.44;8414975;28;20350;-83
2022/10/11 04:39:22;;;;;;;0.00;0.00;;;;;;;16.01;69.04;98491.81;8414362;28;20234;-82
2022/10/11 04:43:25;;;;;;;0.00;0.00;;;;;;;15.98;68.96;98500.66;8413216;28;20235;-83
2022/10/11 04:47:29;;;;;;;0.00;0.00;;;;;;;15.98;69.49;98502.44;8413398;28;20230;-84
2022/10/11 04:51:32;;;;;;;0.00;0.00;;;;;;;15.93;69.60;98505.31;8413057;28;20231;-83
2022/10/11 04:55:35;;;;;;;0.00;0.00;;;;;;;15.98;68.69;98505.06;8413002;28;20234;-81
2022/10/11 04:59:38;;;;;;;0.00;0.00;;;;;;;15.90;69.06;98502.06;8413086;28;20237;-81
2022/10/11 05:03:43;;;;;;;0.00;0.00;;;;;;;15.89;68.98;98505.59;8412466;28;20222;-83
2022/10/11 05:07:45;;;;;;;0.00;0.00;;;;;;;15.92;68.59;98521.09;8412655;28;20261;-83
2022/10/11 05:11:48;;;;;;;0.00;0.00;;;;;;;15.94;68.77;98521.84;8412705;28;20233;-81
2022/10/11 05:15:51;;;;;;;0.00;0.00;;;;;;;15.84;68.99;98526.75;8412495;28;20222;-82
2022/10/11 05:19:55;;;;;;;0.00;0.00;;;;;;;15.83;68.77;98528.50;8417113;28;20222;-83
2022/10/11 05:23:58;;;;;;;0.00;0.00;;;;;;;15.83;68.78;98535.50;8419170;28;20270;-82
2022/10/11 05:28:01;;;;;;;0.00;0.00;;;;;;;15.83;68.54;98541.56;8418952;28;20249;-82
2022/10/11 05:32:04;;;;;;;0.00;0.00;;;;;;;15.83;68.69;98541.56;8418682;28;20314;-82
2022/10/11 05:36:09;;;;;;;0.00;0.00;;;;;;;15.92;68.47;98544.59;8418507;28;20226;-81
2022/10/11 05:40:12;;;;;;;0.00;0.00;;;;;;;15.89;68.72;98550.00;8418724;28;20234;-82
2022/10/11 05:44:15;;;;;;;0.00;0.00;;;;;;;15.81;68.73;98553.03;8418537;28;20235;-82
2022/10/11 05:48:18;;;;;;;0.00;0.00;;;;;;;15.83;68.62;98554.63;8418416;28;20233;-82
2022/10/11 05:52:22;;;;;;;0.00;0.00;;;;;;;15.88;68.10;98570.06;8418363;28;20518;-82
2022/10/11 05:56:26;;;;;;;0.00;0.00;;;;;;;15.85;68.32;98564.16;8417991;28;20231;-82
2022/10/11 06:00:28;;;;;;;0.00;0.00;;;;;;;15.78;68.83;98569.72;8417877;28;20227;-82
2022/10/11 06:04:32;;;;;;;0.00;0.00;;;;;;;15.90;68.51;98580.41;8417682;28;20238;-82
2022/10/11 06:08:36;;;;;;;0.00;0.00;;;;;;;15.90;68.20;98590.88;8417373;28;20234;-82
2022/10/11 06:12:39;;;;;;;0.00;0.00;;;;;;;15.94;68.31;98587.97;8418471;28;20257;-82
2022/10/11 06:16:41;;;;;;;0.00;0.00;;;;;;;15.97;68.18;98597.41;8417296;28;20257;-82
2022/10/11 06:20:44;;;;;;;0.00;0.00;;;;;;;15.95;68.27;98599.25;8417312;28;20297;-82
2022/10/11 06:24:48;;;;;;;0.00;0.00;;;;;;;15.99;68.17;98606.84;8417487;28;20518;-82
2022/10/11 06:28:51;;;;;;;0.00;0.00;;;;;;;16.05;67.79;98620.47;8416770;28;20223;-82
2022/10/11 06:32:53;;;;;;;0.00;0.00;;;;;;;16.06;68.00;98624.78;8417086;28;20231;-83
2022/10/11 06:36:59;;;;;;;0.00;0.00;;;;;;;16.07;68.09;98623.84;8417350;28;20230;-81
2022/10/11 06:41:11;;;;;;;0.00;0.00;;;;;;;16.13;67.55;98637.44;8417300;28;20252;-82
2022/10/11 06:45:14;;;;;;;0.00;0.00;;;;;;;16.05;68.85;98639.63;8417096;28;20404;-82
2022/10/11 06:49:16;;;;;;;0.00;0.00;;;;;;;16.00;68.18;98649.50;8416711;28;20328;-81
2022/10/11 06:53:25;;;;;;;0.00;0.00;;;;;;;16.02;68.35;98651.06;8416888;28;20230;-81
2022/10/11 06:57:29;;;;;;;0.00;0.00;;;;;;;16.10;67.82;98652.44;8418062;28;20243;-81
2022/10/11 07:01:32;;;;;;;0.00;0.00;;;;;;;15.94;68.14;98649.84;8416624;28;20227;-82
2022/10/11 07:05:35;;;;;;;0.00;0.00;;;;;;;16.00;68.07;98654.72;8417208;28;20253;-89
2022/10/11 07:09:38;;;;;;;0.00;0.00;;;;;;;16.03;67.50;98667.63;8416697;28;20238;-84
2022/10/11 07:13:42;;;;;;;0.00;0.00;;;;;;;16.07;67.45;98678.72;8416645;28;20234;-85
2022/10/11 07:17:44;;;;;;;0.00;0.00;;;;;;;16.09;66.82;98677.72;8415724;28;20230;-83
2022/10/11 07:21:47;;;;;;;0.00;0.00;;;;;;;16.02;67.29;98685.03;8415602;28;20227;-83
2022/10/11 07:25:53;;;;;;;0.00;0.00;;;;;;;15.94;67.79;98686.41;8416610;28;20226;-82
2022/10/11 07:29:57;;;;;;;0.00;0.00;;;;;;;16.12;67.14;98695.81;8415570;28;20506;-83
2022/10/11 07:34:00;;;;;;;0.00;0.00;;;;;;;16.17;67.32;98698.19;8415163;28;20230;-83
2022/10/11 07:38:04;;;;;;;0.00;0.00;;;;;;;16.16;66.63;98689.53;8414912;28;20272;-83
2022/10/11 07:42:08;;;;;;;0.00;0.00;;;;;;;16.16;67.14;98702.59;8414825;28;20253;-82
2022/10/11 07:46:12;;;;;;;0.00;0.00;;;;;;;16.26;67.29;98707.28;8415368;28;20242;-83
2022/10/11 07:50:15;;;;;;;0.00;0.00;;;;;;;16.22;67.55;98714.44;8414590;28;20227;-83
2022/10/11 07:54:18;;;;;;;0.00;0.00;;;;;;;16.25;67.54;98701.22;8414641;28;20284;-83
2022/10/11 07:58:20;;;;;;;0.00;0.00;;;;;;;16.28;67.10;98708.91;8414712;28;20227;-83
2022/10/11 08:02:25;;;;;;;0.00;0.00;;;;;;;16.33;67.01;98708.63;8415259;28;20242;-83
2022/10/11 08:06:31;;;;;;;0.00;0.00;;;;;;;16.36;67.19;98700.63;8413925;28;20403;-83
2022/10/11 08:10:38;;;;;;;0.00;0.00;;;;;;;16.39;67.13;98700.44;8413916;28;20246;-83
2022/10/11 08:14:40;;;;;;;0.00;0.00;;;;;;;16.36;67.17;98717.13;8414639;28;20246;-83
2022/10/11 08:18:44;;;;;;;0.00;0.00;;;;;;;16.48;66.43;98714.75;8414049;28;20522;-83
2022/10/11 08:22:47;;;;;;;0.00;0.00;;;;;;;16.51;66.25;98723.28;8413950;28;20249;-83
2022/10/11 08:26:50;;;;;;;0.00;0.00;;;;;;;16.60;66.27;98714.06;8413490;28;20310;-83
2022/10/11 08:30:54;;;;;;;0.00;0.00;;;;;;;16.67;66.07;98718.00;8413735;28;20226;-83
2022/10/11 08:34:58;;;;;;;0.00;0.00;;;;;;;17.33;67.79;98716.78;8413247;28;20230;-84
2022/10/11 08:39:01;;;;;;;0.00;0.00;;;;;;;17.76;65.97;98718.56;8413918;28;20226;-82
2022/10/11 08:43:06;;;;;;;0.00;0.00;;;;;;;18.08;63.84;98721.00;8413429;28;20268;-82
2022/10/11 08:47:11;;;;;;;0.00;0.00;;;;;;;17.90;63.34;98713.34;8413195;28;20285;-82
2022/10/11 08:51:19;;;;;;;0.00;0.00;;;;;;;18.00;62.41;98721.47;8412561;28;20233;-83
2022/10/11 08:55:26;;;;;;;0.00;0.00;;;;;;;19.20;59.80;98721.56;8413471;28;20234;-83
2022/10/11 08:59:32;;;;;;;0.00;0.00;;;;;;;19.08;58.50;98731.13;8412967;28;20233;-83
2022/10/11 09:03:39;;;;;;;0.00;0.00;;;;;;;18.60;59.97;98732.53;8413113;28;20231;-83
2022/10/11 09:07:49;;;;;;;0.00;0.00;;;;;;;18.73;59.80;98726.41;8413145;28;20239;-81
2022/10/11 09:12:04;;;;;;;0.00;0.00;;;;;;;19.32;59.39;98723.38;8412887;28;20242;-81
2022/10/11 09:16:16;;;;;;;0.00;0.00;;;;;;;19.70;57.54;98729.53;8412662;28;20472;-83
2022/10/11 09:20:31;;;;;;;0.00;0.00;;;;;;;19.61;57.03;98728.41;8413351;28;20227;-82
2022/10/11 09:24:56;;;;;;;0.00;0.00;;;;;;;19.94;55.75;98721.75;8412823;28;20526;-82
2022/10/11 09:29:05;;;;;;;0.00;0.00;;;;;;;21.14;53.03;98718.28;8412404;28;20265;-83
2022/10/11 09:33:13;;;;;;;0.00;0.00;;;;;;;20.41;53.98;98721.91;8412687;28;20512;-83
2022/10/11 09:37:21;;;;;;;0.00;0.00;;;;;;;20.10;55.29;98722.34;8412007;28;20240;-82
2022/10/11 09:41:29;;;;;;;0.00;0.00;;;;;;;19.88;55.75;98720.41;8411830;28;20229;-82
2022/10/11 09:45:32;;;;;;;0.00;0.00;;;;;;;19.30;55.01;98716.53;8410570;28;20336;-82
2022/10/11 09:49:37;;;;;;;0.00;0.00;;;;;;;19.80;55.58;98727.13;8411629;28;20413;-82
2022/10/11 09:53:53;;;;;;;0.00;0.00;;;;;;;19.37;56.04;98730.09;8411523;28;20397;-81
2022/10/11 09:57:58;;;;;;;0.00;0.00;;;;;;;19.30;57.17;98735.75;8411546;28;20235;-83
2022/10/11 10:02:19;;;;;;;0.00;0.00;;;;;;;19.25;57.16;98732.59;8411792;28;20229;-84
2022/10/11 10:06:24;;;;;;;0.00;0.00;;;;;;;19.30;57.55;98729.66;8416637;28;20235;-83
2022/10/11 10:10:31;;;;;;;0.00;0.00;;;;;;;19.30;56.96;98734.91;8416655;28;20500;-83
2022/10/11 10:14:35;;;;;;;0.00;0.00;;;;;;;19.17;57.86;98734.88;8417105;28;20241;-84
2022/10/11 10:18:42;;;;;;;0.00;0.00;;;;;;;19.06;57.30;98733.00;8417253;28;20231;-83
2022/10/11 10:22:46;;;;;;;0.00;0.00;;;;;;;18.94;56.98;98732.06;8417747;28;20235;-83
2022/10/11 10:27:07;;;;;;;0.00;0.00;;;;;;;19.09;57.27;98737.19;8417741;28;20227;-83
2022/10/11 10:31:21;;;;;;;0.00;0.00;;;;;;;19.06;57.81;98740.06;8417424;28;20237;-82
2022/10/11 10:35:31;;;;;;;0.00;0.00;;;;;;;19.08;57.98;98739.00;8416991;28;20434;-82
2022/10/11 10:39:39;;;;;;;0.00;0.00;;;;;;;19.22;57.65;98730.19;8416222;28;20232;-84
2022/10/11 10:43:43;;;;;;;0.07;0.07;;;;;;;19.20;57.49;98739.94;8417154;28;20239;-82
2022/10/11 10:48:04;;;;;;;0.00;0.00;;;;;;;19.23;57.21;98739.75;8416476;28;20247;-83
2022/10/11 10:52:32;;;;;;;0.00;0.00;;;;;;;19.47;57.02;98736.38;8416155;28;20232;-83
2022/10/11 10:56:39;;;;;;;0.00;0.00;;;;;;;19.59;56.54;98729.44;8415633;28;20227;-83
2022/10/11 11:00:44;;;;;;;0.00;0.00;;;;;;;19.75;56.63;98737.97;8416497;28;20239;-83
2022/10/11 11:04:53;;;;;;;0.00;0.00;;;;;;;19.81;55.33;98723.56;8416014;28;20245;-83
2022/10/11 11:09:04;;;;;;;0.00;0.00;;;;;;;19.79;55.24;98728.94;8415517;28;20246;-85
2022/10/11 11:13:19;;;;;;;0.00;0.00;;;;;;;19.66;54.84;98728.91;8415159;28;20242;-84
2022/10/11 11:17:28;;;;;;;0.00;0.00;;;;;;;19.87;55.04;98731.00;8415230;28;20465;-83
2022/10/11 11:21:38;;;;;;;0.00;0.00;;;;;;;20.13;54.66;98729.19;8415333;28;20434;-82
2022/10/11 11:25:46;;;;;;;0.00;0.00;;;;;;;20.14;54.63;98724.75;8418142;28;20622;-82
2022/10/11 11:29:56;;;;;;;0.00;0.00;;;;;;;20.09;54.19;98728.56;8417956;28;20383;-83
2022/10/11 11:34:05;;;;;;;0.00;0.00;;;;;;;20.61;53.01;98721.31;8414675;28;20228;-83
2022/10/11 11:38:14;;;;;;;0.00;0.00;;;;;;;20.28;53.63;98719.34;8414900;28;20256;-83
2022/10/11 11:42:21;;;;;;;0.00;0.00;;;;;;;19.91;54.67;98717.56;8415359;28;20252;-83
2022/10/11 11:46:27;;;;;;;0.00;0.00;;;;;;;19.65;55.09;98719.34;8415178;28;20244;-85
2022/10/11 11:50:35;;;;;;;0.00;0.00;;;;;;;19.58;55.20;98715.47;8415168;28;20229;-83
2022/10/11 11:54:49;;;;;;;0.00;0.00;;;;;;;19.47;54.93;98715.38;8414818;28;20233;-84
2022/10/11 11:58:58;;;;;;;0.00;0.00;;;;;;;19.48;55.04;98706.56;8414776;28;20416;-84
2022/10/11 12:03:03;;;;;;;0.00;0.00;;;;;;;19.50;54.63;98707.28;8414332;28;20244;-84
2022/10/11 12:07:08;;;;;;;0.00;0.00;;;;;;;19.51;55.44;98714.22;8413860;28;20231;-82
2022/10/11 12:11:22;;;;;;;0.00;0.00;;;;;;;19.42;54.49;98707.81;8415153;28;20236;-83
2022/10/11 12:15:26;;;;;;;0.00;0.00;;;;;;;19.37;55.25;98709.09;8415872;28;20442;-83
2022/10/11 12:19:30;;;;;;;0.00;0.00;;;;;;;19.46;55.42;98709.28;8413921;28;20469;-82
2022/10/11 12:23:43;;;;;;;0.00;0.00;;;;;;;19.33;55.27;98703.19;8415740;28;20241;-87
2022/10/11 12:27:48;;;;;;;0.00;0.00;;;;;;;19.44;55.85;98705.06;8413372;28;20251;-80
2022/10/11 12:32:12;;;;;;;0.00;0.00;;;;;;;19.47;55.16;98697.81;8413694;28;20546;-87
2022/10/11 12:36:38;;;;;;;0.00;0.00;;;;;;;19.31;55.74;98700.66;8415087;28;20237;-88
2022/10/11 12:40:42;;;;;;;0.00;0.00;;;;;;;19.19;55.93;98698.91;8415762;28;20232;-88
2022/10/11 12:45:29;;;;;;;0.00;0.00;;;;;;;19.21;56.04;98697.00;8414089;28;20429;-87
2022/10/11 12:49:43;;;;;;;0.00;0.00;;;;;;;19.14;55.93;98704.44;8413456;28;20237;-89
2022/10/11 12:54:07;;;;;;;0.00;0.00;;;;;;;19.31;55.49;98690.16;8413140;28;20246;-91
2022/10/11 12:58:32;;;;;;;0.00;0.00;;;;;;;19.37;55.17;98691.53;8412366;28;20256;-88
2022/10/11 13:02:41;;;;;;;0.00;0.00;;;;;;;19.41;54.99;98687.75;8413506;28;20427;-88
2022/10/11 13:06:46;;;;;;;0.00;0.00;;;;;;;19.58;55.18;98688.38;8412564;28;20236;-85
2022/10/11 13:10:49;;;;;;;0.00;0.00;;;;;;;20.01;54.45;98683.56;8411960;28;20232;-84
2022/10/11 13:14:58;;;;;;;0.00;0.00;;;;;;;19.75;54.29;98679.34;8411494;28;20237;-85
2022/10/11 13:19:13;;;;;;;0.00;0.00;;;;;;;19.82;54.19;98685.81;8412007;28;20521;-84
2022/10/11 13:23:20;;;;;;;0.00;0.00;;;;;;;20.50;52.50;98679.16;8411763;28;20544;-84
2022/10/11 13:27:26;;;;;;;0.00;0.00;;;;;;;20.03;53.34;98679.03;8412103;28;20249;-83
2022/10/11 13:31:28;;;;;;;0.00;0.00;;;;;;;20.81;51.45;98677.75;8411471;28;20433;-84
2022/10/11 13:35:35;;;;;;;0.00;0.00;;;;;;;21.06;51.18;98670.63;8411328;28;20301;-83
2022/10/11 13:39:38;;;;;;;0.00;0.00;;;;;;;21.24;49.73;98676.25;8414444;28;20506;-84
2022/10/11 13:43:41;;;;;;;0.00;0.00;;;;;;;21.13;49.46;98669.19;8418403;28;20226;-85
2022/10/11 13:47:44;;;;;;;0.00;0.00;;;;;;;21.19;49.43;98673.13;8417968;28;20233;-84
2022/10/11 13:51:58;;;;;;;0.00;0.00;;;;;;;21.39;48.14;98669.81;8418081;28;20235;-86
2022/10/11 13:56:03;;;;;;;0.00;0.00;;;;;;;21.46;49.17;98671.03;8418195;28;20247;-86
2022/10/11 14:00:22;;;;;;;0.00;0.00;;;;;;;21.28;48.41;98667.16;8418156;28;20237;-88
2022/10/11 14:04:25;;;;;;;0.00;0.00;;;;;;;21.32;48.90;98662.50;8421871;28;20239;-86
2022/10/11 14:08:38;;;;;;;0.00;0.00;;;;;;;21.53;48.32;98660.00;8419497;28;20242;-85
2022/10/11 14:12:43;;;;;;;0.00;0.00;;;;;;;21.63;48.54;98658.34;8417086;28;20242;-85
2022/10/11 14:16:54;;;;;;;0.00;0.00;;;;;;;21.54;48.14;98651.16;8417287;28;20259;-85
2022/10/11 14:20:57;;;;;;;0.00;0.00;;;;;;;21.51;48.37;98656.66;8417777;28;20235;-86
2022/10/11 14:25:02;;;;;;;0.00;0.00;;;;;;;21.29;48.18;98661.78;8418163;28;20230;-87
2022/10/11 14:29:07;;;;;;;0.00;0.00;;;;;;;20.95;49.16;98660.91;8420034;28;20226;-85
2022/10/11 14:33:10;;;;;;;0.00;0.00;;;;;;;20.76;49.77;98656.19;8423989;28;20530;-85
2022/10/11 14:37:13;;;;;;;0.00;0.00;;;;;;;20.88;49.28;98657.88;8426180;28;20241;-87
2022/10/11 14:41:18;;;;;;;0.00;0.00;;;;;;;21.00;49.16;98653.50;8423667;28;20283;-86
2022/10/11 14:45:21;;;;;;;0.00;0.00;;;;;;;20.74;48.69;98662.53;8427134;28;20227;-87
2022/10/11 14:49:26;;;;;;;0.00;0.00;;;;;;;20.55;49.15;98658.59;8417434;28;20257;-86
2022/10/11 14:53:29;;;;;;;0.00;0.00;;;;;;;20.43;49.77;98659.53;8421377;28;20238;-86
2022/10/11 14:57:33;;;;;;;0.00;0.00;;;;;;;20.84;53.27;98666.13;8425708;28;20241;-86
2022/10/11 15:01:36;;;;;;;0.00;0.00;;;;;;;20.61;53.96;98657.34;8425737;28;20234;-88
2022/10/11 15:05:39;;;;;;;0.00;0.00;;;;;;;20.68;53.33;98663.84;8429569;28;20234;-90
2022/10/11 15:09:42;;;;;;;0.00;0.00;;;;;;;20.49;53.95;98675.69;8425445;28;20246;-89
2022/10/11 15:13:46;;;;;;;0.00;0.00;;;;;;;20.46;53.30;98665.38;8424063;28;20239;-86
2022/10/11 15:17:51;;;;;;;0.00;0.00;;;;;;;20.13;50.84;98662.59;8421325;28;20268;-86
2022/10/11 15:21:54;;;;;;;0.00;0.00;;;;;;;19.79;50.73;98670.28;8419800;28;20227;-86
2022/10/11 15:25:57;;;;;;;0.00;0.00;;;;;;;19.58;51.73;98670.81;8423367;28;20390;-84
2022/10/11 15:30:01;;;;;;;0.00;0.00;;;;;;;19.36;51.96;98671.44;8420354;28;20238;-83
2022/10/11 15:34:04;;;;;;;0.00;0.00;;;;;;;19.28;52.29;98668.53;8420747;28;20238;-84
2022/10/11 15:38:15;;;;;;;0.00;0.00;;;;;;;19.20;52.74;98670.84;8423676;28;20560;-82
2022/10/11 15:42:18;;;;;;;0.00;0.00;;;;;;;19.02;52.94;98668.53;8421710;28;20236;-84
2022/10/11 15:46:23;;;;;;;0.00;0.00;;;;;;;18.81;53.14;98678.69;8417023;28;20238;-84
2022/10/11 15:50:33;;;;;;;0.00;0.00;;;;;;;18.88;53.00;98674.69;8419642;28;20229;-81
2022/10/11 15:54:36;;;;;;;0.00;0.00;;;;;;;18.70;53.50;98674.13;8419251;28;20314;-82
2022/10/11 15:58:40;;;;;;;0.00;0.00;;;;;;;18.56;53.76;98672.44;8417464;28;20295;-84
2022/10/11 16:02:44;;;;;;;0.00;0.00;;;;;;;18.55;54.18;98669.91;8414117;28;20519;-85
2022/10/11 16:06:47;;;;;;;0.00;0.00;;;;;;;18.35;54.47;98672.06;8414759;28;20231;-84
2022/10/11 16:10:50;;;;;;;0.00;0.00;;;;;;;18.31;55.14;98678.41;8414479;28;20225;-85
2022/10/11 16:14:53;;;;;;;0.00;0.00;;;;;;;18.26;55.38;98671.78;8416033;28;20228;-84
2022/10/11 16:18:57;;;;;;;0.00;0.00;;;;;;;18.11;55.30;98678.88;8419716;28;20290;-91
2022/10/11 16:23:00;;;;;;;0.00;0.00;;;;;;;18.11;55.73;98673.63;8407103;28;20401;-91
2022/10/11 16:27:03;;;;;;;0.00;0.00;;;;;;;18.05;55.66;98680.09;8427855;28;20227;-87
2022/10/11 16:31:07;;;;;;;0.00;0.00;;;;;;;17.94;55.50;98675.53;8422070;28;20222;-87
2022/10/11 16:35:12;;;;;;;0.00;0.00;;;;;;;17.81;55.72;98687.69;8420698;28;20314;-87
2022/10/11 16:39:17;;;;;;;0.00;0.00;;;;;;;17.78;55.65;98686.13;8420439;28;20231;-89
2022/10/11 16:43:19;;;;;;;0.00;0.00;;;;;;;17.69;56.20;98683.22;8418489;28;20230;-90
2022/10/11 16:47:25;;;;;;;0.00;0.00;;;;;;;17.70;55.79;98683.09;8414229;28;20545;-87
2022/10/11 16:51:30;;;;;;;0.00;0.00;;;;;;;17.55;56.12;98684.94;8413089;28;20278;-90
2022/10/11 16:55:32;;;;;;;0.00;0.00;;;;;;;17.61;56.12;98686.31;8414018;28;20469;-91
2022/10/11 16:59:35;;;;;;;0.00;0.00;;;;;;;17.61;56.24;98683.72;8415214;28;20238;-81
2022/10/11 17:03:38;;;;;;;0.00;0.00;;;;;;;17.46;56.47;98693.34;8414195;28;20246;-89
2022/10/11 17:07:42;;;;;;;0.00;0.00;;;;;;;17.42;56.69;98686.63;8413871;28;20241;-90
2022/10/11 17:11:45;;;;;;;0.00;0.00;;;;;;;17.45;56.49;98696.03;8414210;28;20239;-91
2022/10/11 17:15:48;;;;;;;0.00;0.00;;;;;;;17.38;56.62;98690.31;8424754;28;20235;-86
2022/10/11 17:19:51;;;;;;;0.00;0.00;;;;;;;17.36;56.95;98687.81;8424465;28;20237;-86
2022/10/11 17:23:55;;;;;;;0.00;0.00;;;;;;;17.30;56.98;98687.34;8425495;28;20241;-90
2022/10/11 17:27:58;;;;;;;0.00;0.00;;;;;;;17.27;56.79;98685.75;8425850;28;20222;-93
2022/10/11 17:32:01;;;;;;;0.00;0.00;;;;;;;17.19;57.45;98694.06;8425652;28;20283;-79
2022/10/11 17:36:14;;;;;;;0.00;0.00;;;;;;;17.13;57.43;98689.19;8424526;28;20226;-86
2022/10/11 17:40:18;;;;;;;0.00;0.00;;;;;;;17.07;57.24;98694.78;8424803;28;20230;-89
2022/10/11 17:44:21;;;;;;;0.10;0.10;;;;;;;17.04;57.33;98691.50;8424506;28;20237;-79
2022/10/11 17:48:24;;;;;;;0.00;0.00;;;;;;;16.98;57.68;98690.97;8423766;28;20239;-79
2022/10/11 17:52:26;;;;;;;0.00;0.00;;;;;;;16.94;57.43;98691.22;8424395;28;20234;-89
2022/10/11 17:56:30;;;;;;;0.00;0.00;;;;;;;16.98;58.04;98690.97;8427962;28;20257;-93
2022/10/11 18:00:39;;;;;;;0.00;0.00;;;;;;;16.94;58.20;98696.44;8427736;28;20330;-90
2022/10/11 18:04:42;;;;;;;0.00;0.00;;;;;;;16.98;58.42;98692.72;8424926;28;20234;-93
2022/10/11 18:08:45;;;;;;;0.00;0.00;;;;;;;16.89;58.58;98690.66;8425114;28;20234;-85
2022/10/11 18:12:52;;;;;;;0.00;0.00;;;;;;;16.98;57.85;98695.31;8424511;28;20437;-88
2022/10/11 18:16:54;;;;;;;0.00;0.00;;;;;;;16.90;58.07;98687.09;8425131;28;20249;-89
2022/10/11 18:20:57;;;;;;;0.00;0.00;;;;;;;16.90;57.97;98689.72;8424628;28;20245;-87
2022/10/11 18:25:00;;;;;;;0.00;0.00;;;;;;;16.86;58.13;98694.28;8422159;28;20238;-91
2022/10/11 18:29:04;;;;;;;0.00;0.00;;;;;;;16.76;58.34;98690.50;8420477;28;20235;-92
2022/10/11 18:33:07;;;;;;;0.00;0.00;;;;;;;16.84;58.67;98687.47;8420463;28;20284;-91
2022/10/11 18:37:10;;;;;;;0.00;0.00;;;;;;;16.87;58.46;98693.38;8419444;28;20222;-92
2022/10/11 18:41:14;;;;;;;0.00;0.00;;;;;;;16.86;58.32;98688.22;8418576;28;20234;-91
2022/10/11 18:45:18;;;;;;;0.07;0.07;;;;;;;16.82;58.24;98679.69;8419447;28;20330;-92
2022/10/11 18:49:20;;;;;;;0.00;0.00;;;;;;;16.88;57.70;98683.72;8421828;28;20235;-93
2022/10/11 18:53:23;;;;;;;0.00;0.00;;;;;;;16.83;58.09;98684.00;8421424;28;20230;-92
2022/10/11 18:57:26;;;;;;;0.00;0.00;;;;;;;16.74;58.44;98680.13;8420422;28;20235;-92
2022/10/11 19:01:34;;;;;;;0.00;0.00;;;;;;;16.71;57.44;98676.84;8421740;28;20238;-93
2022/10/11 19:05:38;;;;;;;0.00;0.00;;;;;;;16.74;58.25;98684.50;8421634;28;20227;-94
2022/10/11 19:09:42;;;;;;;0.10;0.10;;;;;;;16.72;57.98;98684.59;8427902;28;20241;-90
2022/10/11 19:13:44;;;;;;;0.00;0.00;;;;;;;16.74;58.25;98677.50;8440202;28;20239;-90
2022/10/11 19:17:49;;;;;;;0.00;0.00;;;;;;;16.70;58.00;98683.00;8440762;28;20215;-91